Time;durP1;ratioP1;P1;durP2;ratioP2;P2;SDS_P1;SDS_P2;PMS_P1;PMS_P2;Temp;Humidity;BMP_temperature;BMP_pressure;BME280_temperature;BME280_humidity;BME280_pressure;Samples;Min_cycle;Max_cycle;Signal;HPM_P1;HPM_P2
2022/07/20 00:00:38;;;;;;;6.30;4.40;;;23.30;96.90;;;;;;4949284;28;20767;-68
2022/07/20 00:03:14;;;;;;;5.65;4.07;;;23.30;96.80;;;;;;4949710;28;20201;-68
2022/07/20 00:05:42;;;;;;;8.70;4.00;;;23.20;96.90;;;;;;4944087;28;20210;-68
2022/07/20 00:08:09;;;;;;;6.80;4.13;;;23.20;96.90;;;;;;4949131;29;21323;-68
2022/07/20 00:13:22;;;;;;;6.43;3.97;;;23.10;96.90;;;;;;4944810;29;20206;-68
2022/07/20 00:15:49;;;;;;;4.93;3.97;;;23.00;97.20;;;;;;4947405;28;20264;-68
2022/07/20 00:18:17;;;;;;;6.85;4.13;;;22.90;97.10;;;;;;4949105;28;20195;-68
2022/07/20 00:20:44;;;;;;;6.53;3.83;;;22.90;97.40;;;;;;4947113;28;20237;-68
2022/07/20 00:23:11;;;;;;;4.28;3.83;;;22.90;97.20;;;;;;4944890;28;20660;-68
2022/07/20 00:25:38;;;;;;;5.28;4.00;;;22.90;97.20;;;;;;4950732;29;20206;-68
2022/07/20 00:28:04;;;;;;;5.20;3.83;;;22.80;97.40;;;;;;4943961;29;20542;-68
2022/07/20 00:30:31;;;;;;;5.65;4.05;;;22.80;97.30;;;;;;4947041;29;20227;-69
2022/07/20 00:32:58;;;;;;;5.72;3.90;;;22.70;97.40;;;;;;4949430;28;20294;-68
2022/07/20 00:35:24;;;;;;;4.85;3.72;;;22.80;97.40;;;;;;4944156;28;20206;-68
2022/07/20 00:37:51;;;;;;;4.40;3.67;;;22.80;97.40;;;;;;4949078;28;20593;-68
2022/07/20 00:40:18;;;;;;;5.60;4.13;;;22.70;97.50;;;;;;4941194;28;20229;-68
2022/07/20 00:42:44;;;;;;;4.95;3.70;;;22.70;97.50;;;;;;4950078;28;20209;-68
2022/07/20 00:45:11;;;;;;;5.95;4.07;;;22.60;98.00;;;;;;4948933;28;20199;-68
2022/07/20 00:47:38;;;;;;;5.70;4.40;;;22.50;97.90;;;;;;4946409;28;20202;-68
2022/07/20 00:50:06;;;;;;;5.45;4.05;;;22.60;97.80;;;;;;4947707;28;20226;-68
2022/07/20 00:52:34;;;;;;;5.82;3.83;;;22.60;97.80;;;;;;4951072;28;20624;-68
2022/07/20 00:55:00;;;;;;;6.18;3.70;;;22.60;97.80;;;;;;4947900;28;20199;-68
2022/07/20 00:57:27;;;;;;;4.90;3.33;;;22.50;97.80;;;;;;4940688;29;20195;-68
2022/07/20 00:59:54;;;;;;;9.30;3.85;;;22.50;97.90;;;;;;4945831;28;20214;-68
2022/07/20 01:02:21;;;;;;;5.55;3.75;;;22.50;98.00;;;;;;4946937;28;20322;-68
2022/07/20 01:04:47;;;;;;;5.18;3.75;;;22.60;97.70;;;;;;4948015;28;20202;-68
2022/07/20 01:07:14;;;;;;;5.15;3.78;;;22.60;97.80;;;;;;4947763;28;21173;-68
2022/07/20 01:09:42;;;;;;;4.65;3.60;;;22.50;98.10;;;;;;4949283;28;20209;-68
2022/07/20 01:12:10;;;;;;;4.93;3.60;;;22.30;98.30;;;;;;4950036;29;20213;-68
2022/07/20 01:14:37;;;;;;;5.47;3.58;;;22.10;98.70;;;;;;4946503;28;20659;-68
2022/07/20 01:17:03;;;;;;;5.45;3.55;;;22.10;99.00;;;;;;4944515;28;20588;-68
2022/07/20 01:19:30;;;;;;;7.57;3.70;;;21.90;99.00;;;;;;4945152;29;20261;-68
2022/07/20 01:21:57;;;;;;;4.20;3.22;;;21.90;99.20;;;;;;4948553;29;20216;-68
2022/07/20 01:24:23;;;;;;;7.35;4.22;;;21.80;99.20;;;;;;4947461;28;20217;-68
2022/07/20 01:26:50;;;;;;;5.28;3.75;;;21.80;99.40;;;;;;4943271;28;20597;-68
2022/07/20 01:29:17;;;;;;;5.65;3.90;;;21.70;99.50;;;;;;4946318;29;20210;-68
2022/07/20 01:31:44;;;;;;;5.65;3.85;;;21.70;99.50;;;;;;4945542;29;20312;-68
2022/07/20 01:34:11;;;;;;;6.07;3.58;;;21.70;99.50;;;;;;4947587;28;20663;-68
2022/07/20 01:36:37;;;;;;;5.32;3.50;;;21.60;99.60;;;;;;4949391;28;20290;-68
2022/07/20 01:39:04;;;;;;;6.25;3.72;;;21.60;99.80;;;;;;4940824;28;20211;-68
2022/07/20 01:41:31;;;;;;;4.40;3.53;;;21.50;99.90;;;;;;4942205;29;20317;-68
2022/07/20 01:43:58;;;;;;;6.20;3.90;;;21.50;99.90;;;;;;4945140;29;20194;-68
2022/07/20 01:46:24;;;;;;;4.20;3.33;;;21.50;99.90;;;;;;4941454;28;20213;-68
2022/07/20 01:48:51;;;;;;;9.68;4.13;;;21.50;99.90;;;;;;4940743;28;20213;-68
2022/07/20 01:51:19;;;;;;;7.10;3.83;;;21.50;99.90;;;;;;4945981;28;20573;-68
2022/07/20 01:53:45;;;;;;;6.40;3.83;;;21.50;99.90;;;;;;4946602;28;20879;-68
2022/07/20 01:56:12;;;;;;;5.63;3.70;;;21.30;99.90;;;;;;4942000;28;20577;-67
2022/07/20 01:58:39;;;;;;;5.20;3.72;;;21.20;99.90;;;;;;4947263;29;20232;-68
2022/07/20 02:01:05;;;;;;;6.45;3.83;;;21.10;99.90;;;;;;4946902;29;20699;-68
2022/07/20 02:03:32;;;;;;;6.75;3.80;;;21.00;99.90;;;;;;4946316;28;20202;-68
2022/07/20 02:05:59;;;;;;;6.30;4.00;;;20.90;99.90;;;;;;4946685;28;20214;-68
2022/07/20 02:08:28;;;;;;;4.70;3.70;;;20.90;99.90;;;;;;4947375;28;20217;-68
2022/07/20 02:10:55;;;;;;;5.43;4.38;;;21.00;99.90;;;;;;4947284;29;20228;-67
2022/07/20 02:13:21;;;;;;;5.67;3.90;;;21.20;99.90;;;;;;4947504;28;20198;-67
2022/07/20 02:16:21;;;;;;;7.38;4.22;;;21.30;99.90;;;;;;4948518;28;20206;-67
2022/07/20 02:18:49;;;;;;;4.95;3.70;;;21.40;99.90;;;;;;4948082;28;20253;-67
2022/07/20 02:21:18;;;;;;;5.72;3.85;;;21.30;99.90;;;;;;4943169;29;20300;-67
2022/07/20 02:23:45;;;;;;;5.70;3.70;;;21.30;99.90;;;;;;4940762;28;20697;-67
2022/07/20 02:26:11;;;;;;;4.93;3.70;;;21.20;99.90;;;;;;4948136;29;20224;-68
2022/07/20 02:28:39;;;;;;;6.73;3.93;;;21.10;99.90;;;;;;4942999;28;20218;-68
2022/07/20 02:31:06;;;;;;;4.90;3.57;;;21.10;99.90;;;;;;4945498;29;20236;-68
2022/07/20 02:33:33;;;;;;;6.03;3.45;;;21.00;99.90;;;;;;4943345;28;20195;-68
2022/07/20 02:36:00;;;;;;;5.27;3.80;;;20.90;99.90;;;;;;4942670;28;20389;-68
2022/07/20 02:38:27;;;;;;;6.33;3.67;;;20.90;99.90;;;;;;4948135;28;20203;-67
2022/07/20 02:40:54;;;;;;;5.03;3.40;;;20.80;99.90;;;;;;4936904;28;20301;-68
2022/07/20 02:43:21;;;;;;;5.67;3.50;;;20.80;99.90;;;;;;4946990;29;20209;-68
2022/07/20 02:45:47;;;;;;;5.30;3.70;;;20.70;99.90;;;;;;4940999;28;20230;-68
2022/07/20 02:48:14;;;;;;;6.47;3.77;;;20.60;99.90;;;;;;4944479;28;20663;-68
2022/07/20 02:50:42;;;;;;;4.93;3.73;;;20.50;99.90;;;;;;4947466;28;20226;-68
2022/07/20 02:53:09;;;;;;;6.17;3.90;;;20.70;99.90;;;;;;4943675;28;20226;-68
2022/07/20 02:55:37;;;;;;;4.87;3.70;;;20.80;99.90;;;;;;4946399;29;20410;-68
2022/07/20 02:58:04;;;;;;;6.23;4.13;;;20.80;99.90;;;;;;4942257;28;20587;-67
2022/07/20 03:00:31;;;;;;;7.67;3.97;;;20.70;99.90;;;;;;4941388;28;20224;-68
2022/07/20 03:02:58;;;;;;;6.37;3.87;;;20.70;99.90;;;;;;4937188;28;20195;-68
2022/07/20 03:05:25;;;;;;;5.70;3.90;;;20.60;99.90;;;;;;4945334;28;20296;-67
2022/07/20 03:07:52;;;;;;;5.70;3.73;;;20.60;99.90;;;;;;4943706;29;20628;-68
2022/07/20 03:10:19;;;;;;;7.50;3.50;;;20.60;99.90;;;;;;4944662;29;20240;-68
2022/07/20 03:12:46;;;;;;;4.97;3.67;;;20.60;99.90;;;;;;4945252;28;20226;-68
2022/07/20 03:15:13;;;;;;;5.53;3.73;;;20.60;99.90;;;;;;4947086;29;20202;-67
2022/07/20 03:17:49;;;;;;;4.93;3.47;;;20.50;99.90;;;;;;4944630;29;20202;-66
2022/07/20 03:20:22;;;;;;;4.83;3.80;;;20.60;99.90;;;;;;4944414;28;20221;-67
2022/07/20 03:22:49;;;;;;;6.63;3.50;;;20.70;99.90;;;;;;4944423;29;20602;-66
2022/07/20 03:25:16;;;;;;;3.70;3.30;;;20.60;99.90;;;;;;4948307;28;20205;-67
2022/07/20 03:27:43;;;;;;;6.70;3.47;;;20.50;99.90;;;;;;4949930;28;20202;-67
2022/07/20 03:30:11;;;;;;;5.10;3.53;;;20.50;99.90;;;;;;4951114;29;20233;-66
2022/07/20 03:32:37;;;;;;;4.23;3.40;;;20.40;99.90;;;;;;4949748;29;20227;-67
2022/07/20 03:35:05;;;;;;;5.87;3.50;;;20.30;99.90;;;;;;4946909;28;20291;-67
2022/07/20 03:37:31;;;;;;;6.37;3.10;;;20.20;99.90;;;;;;4951038;28;20210;-68
2022/07/20 03:39:58;;;;;;;3.30;3.00;;;20.10;99.90;;;;;;4948448;28;20214;-68
2022/07/20 03:42:25;;;;;;;3.87;3.20;;;20.00;99.90;;;;;;4948921;28;20211;-68
2022/07/20 03:44:51;;;;;;;5.70;3.60;;;19.90;99.90;;;;;;4941973;28;20212;-67
2022/07/20 03:47:18;;;;;;;6.83;3.90;;;19.90;99.90;;;;;;4942662;28;20690;-66
2022/07/20 03:49:45;;;;;;;5.20;3.70;;;20.00;99.90;;;;;;4947156;28;20577;-67
2022/07/20 03:52:11;;;;;;;4.33;3.30;;;20.20;99.90;;;;;;4942466;28;20230;-67
2022/07/20 03:54:40;;;;;;;4.70;3.77;;;20.20;99.90;;;;;;4950130;28;20226;-67
2022/07/20 03:57:07;;;;;;;6.70;3.90;;;20.20;99.90;;;;;;4945570;28;20198;-67
2022/07/20 03:59:34;;;;;;;6.67;3.60;;;20.10;99.90;;;;;;4939020;28;20581;-67
2022/07/20 04:02:01;;;;;;;6.37;3.57;;;20.10;99.90;;;;;;4945504;29;20207;-66
2022/07/20 04:04:28;;;;;;;5.07;3.63;;;20.20;99.90;;;;;;4948708;28;20532;-67
2022/07/20 04:06:55;;;;;;;3.90;3.50;;;20.20;99.90;;;;;;4947313;28;20198;-67
2022/07/20 04:12:10;;;;;;;4.97;3.43;;;20.20;99.90;;;;;;4941714;28;20230;-68
2022/07/20 04:14:37;;;;;;;5.03;3.27;;;20.20;99.90;;;;;;4944900;29;20206;-68
2022/07/20 04:17:04;;;;;;;6.50;4.53;;;20.20;99.90;;;;;;4946938;29;20554;-68
2022/07/20 04:19:31;;;;;;;9.73;4.30;;;20.30;99.90;;;;;;4944715;28;20659;-68
2022/07/20 04:22:00;;;;;;;9.67;4.03;;;20.50;99.90;;;;;;4942312;28;20206;-68
2022/07/20 04:24:27;;;;;;;4.60;3.30;;;20.60;99.90;;;;;;4938387;28;20770;-68
2022/07/20 04:26:54;;;;;;;5.57;3.50;;;20.50;99.90;;;;;;4958601;28;20198;-68
2022/07/20 04:29:22;;;;;;;6.93;3.73;;;20.50;99.90;;;;;;4951524;28;20253;-69
2022/07/20 04:31:50;;;;;;;5.80;3.77;;;20.60;99.90;;;;;;4947125;28;20245;-69
2022/07/20 04:34:17;;;;;;;6.20;3.33;;;20.60;99.90;;;;;;4941669;28;20805;-68
2022/07/20 04:36:43;;;;;;;7.73;4.07;;;20.60;99.90;;;;;;4944679;28;20698;-69
2022/07/20 04:39:10;;;;;;;6.30;3.87;;;20.70;99.90;;;;;;4948093;28;20190;-68
2022/07/20 04:41:37;;;;;;;5.27;3.90;;;20.80;99.90;;;;;;4948294;28;20308;-68
2022/07/20 04:44:04;;;;;;;8.85;3.70;;;21.00;99.90;;;;;;4945562;28;20209;-68
2022/07/20 04:46:31;;;;;;;7.30;4.10;;;21.10;99.90;;;;;;4941403;29;20202;-68
2022/07/20 04:48:58;;;;;;;5.83;3.57;;;21.30;99.90;;;;;;4945390;28;20290;-68
2022/07/20 04:51:24;;;;;;;5.33;3.60;;;21.40;99.90;;;;;;4945543;29;20221;-69
2022/07/20 04:53:51;;;;;;;9.43;4.20;;;21.30;99.90;;;;;;4944575;29;20218;-69
2022/07/20 04:56:18;;;;;;;6.72;3.70;;;21.40;99.90;;;;;;4943603;29;20198;-69
2022/07/20 04:58:52;;;;;;;7.53;4.18;;;21.40;99.90;;;;;;4947302;28;20206;-67
2022/07/20 05:01:20;;;;;;;5.32;3.63;;;21.40;99.90;;;;;;4943420;28;20209;-67
2022/07/20 05:03:48;;;;;;;6.97;3.65;;;21.40;99.90;;;;;;4946833;28;20198;-68
2022/07/20 05:06:15;;;;;;;5.78;3.50;;;21.40;99.90;;;;;;4943147;29;20202;-68
2022/07/20 05:08:42;;;;;;;7.60;4.00;;;21.40;99.90;;;;;;4946993;29;20202;-68
2022/07/20 05:11:08;;;;;;;6.85;4.00;;;21.40;99.90;;;;;;4943061;29;20222;-68
2022/07/20 05:13:37;;;;;;;7.18;3.97;;;21.60;99.90;;;;;;4944809;29;20218;-68
2022/07/20 05:16:05;;;;;;;7.10;4.28;;;21.80;99.90;;;;;;4941877;29;20213;-67
2022/07/20 05:18:32;;;;;;;8.23;4.13;;;22.00;99.90;;;;;;4944804;29;20190;-67
2022/07/20 05:20:59;;;;;;;8.07;4.18;;;22.10;99.90;;;;;;4943455;28;20219;-67
2022/07/20 05:23:26;;;;;;;6.55;4.05;;;22.30;99.90;;;;;;4940240;29;20222;-67
2022/07/20 05:25:53;;;;;;;10.57;4.53;;;22.60;99.90;;;;;;4942909;29;20257;-68
2022/07/20 05:28:22;;;;;;;10.27;4.18;;;22.70;99.90;;;;;;4938637;28;20590;-67
2022/07/20 05:30:50;;;;;;;7.18;4.20;;;23.00;99.90;;;;;;4938776;29;20569;-67
2022/07/20 05:33:17;;;;;;;5.85;4.00;;;23.30;99.90;;;;;;4949069;28;20529;-67
2022/07/20 05:35:45;;;;;;;7.80;3.88;;;23.60;99.90;;;;;;4941365;28;20214;-68
2022/07/20 05:38:12;;;;;;;7.82;3.90;;;23.80;99.90;;;;;;4944451;29;20203;-67
2022/07/20 05:40:39;;;;;;;5.70;4.07;;;24.20;99.90;;;;;;4945546;28;20309;-67
2022/07/20 05:43:06;;;;;;;14.00;4.13;;;24.60;99.90;;;;;;4944392;28;20226;-67
2022/07/20 05:45:33;;;;;;;11.30;4.40;;;24.80;99.90;;;;;;4940124;28;20234;-67
2022/07/20 05:48:00;;;;;;;6.57;4.45;;;25.00;99.90;;;;;;4947966;28;20279;-67
2022/07/20 05:50:27;;;;;;;5.95;4.00;;;25.30;99.90;;;;;;4946542;28;20222;-67
2022/07/20 05:52:54;;;;;;;7.32;3.67;;;25.70;99.90;;;;;;4942210;28;20233;-67
2022/07/20 05:55:20;;;;;;;5.60;3.92;;;26.10;99.90;;;;;;4954048;28;20202;-67
2022/07/20 05:57:47;;;;;;;5.18;3.40;;;26.40;99.90;;;;;;4950212;28;20613;-67
2022/07/20 06:00:14;;;;;;;6.32;3.70;;;26.80;99.90;;;;;;4950475;28;20244;-67
2022/07/20 06:02:41;;;;;;;8.60;4.03;;;27.20;99.70;;;;;;4940111;28;20221;-67
2022/07/20 06:05:08;;;;;;;6.93;3.55;;;27.30;99.70;;;;;;4945958;28;20207;-67
2022/07/20 06:07:35;;;;;;;8.52;3.65;;;27.40;99.90;;;;;;4943233;28;20202;-67
2022/07/20 06:10:07;;;;;;;10.63;4.07;;;27.40;99.90;;;;;;4945029;29;20309;-67
2022/07/20 06:12:35;;;;;;;9.15;3.72;;;27.30;99.80;;;;;;4945568;28;20310;-67
2022/07/20 06:15:01;;;;;;;6.88;4.20;;;27.30;99.20;;;;;;4948330;28;20198;-67
2022/07/20 06:17:39;;;;;;;5.10;3.40;;;27.20;99.60;;;;;;4940172;28;20208;-67
2022/07/20 06:20:10;;;;;;;5.30;3.97;;;27.20;99.90;;;;;;4958432;28;20225;-67
2022/07/20 06:22:38;;;;;;;19.75;5.05;;;27.20;99.90;;;;;;4936066;28;20198;-68
2022/07/20 06:25:06;;;;;;;13.32;4.40;;;27.20;98.70;;;;;;4943413;28;20303;-67
2022/07/20 06:27:33;;;;;;;17.25;4.18;;;27.30;99.30;;;;;;4939701;29;20202;-67
2022/07/20 06:30:00;;;;;;;8.25;3.90;;;27.30;98.30;;;;;;4942586;28;20225;-67
2022/07/20 06:32:27;;;;;;;10.10;4.78;;;27.40;99.50;;;;;;4938058;29;20229;-67
2022/07/20 06:34:54;;;;;;;12.15;5.10;;;27.40;99.90;;;;;;4946958;29;20214;-67
2022/07/20 06:37:20;;;;;;;13.75;4.82;;;27.50;99.50;;;;;;4946117;28;20200;-67
2022/07/20 06:39:47;;;;;;;7.57;3.65;;;27.50;97.50;;;;;;4944463;29;20868;-67
2022/07/20 06:42:15;;;;;;;10.20;4.15;;;27.60;95.70;;;;;;4943830;28;20205;-67
2022/07/20 06:44:42;;;;;;;10.82;4.03;;;27.70;95.50;;;;;;4941558;28;20202;-67
2022/07/20 06:47:09;;;;;;;11.52;3.63;;;27.90;94.50;;;;;;4944272;28;20202;-67
2022/07/20 06:49:36;;;;;;;6.72;3.80;;;28.00;94.40;;;;;;4940440;28;20199;-67
2022/07/20 06:52:03;;;;;;;11.00;3.60;;;28.10;94.30;;;;;;4936933;28;20206;-67
2022/07/20 06:54:31;;;;;;;4.53;3.42;;;28.20;93.80;;;;;;4933405;28;20672;-67
2022/07/20 06:56:58;;;;;;;6.88;3.47;;;28.30;93.20;;;;;;4942417;29;20229;-68
2022/07/20 06:59:25;;;;;;;5.60;3.85;;;28.60;93.30;;;;;;4928962;29;20195;-67
2022/07/20 07:01:52;;;;;;;14.82;3.72;;;28.90;93.20;;;;;;4948122;28;20214;-67
2022/07/20 07:04:19;;;;;;;9.02;3.50;;;29.20;92.70;;;;;;4944656;29;20209;-67
2022/07/20 07:06:46;;;;;;;10.27;3.70;;;29.50;92.50;;;;;;4946325;29;20551;-68
2022/07/20 07:09:13;;;;;;;6.95;3.90;;;30.10;91.80;;;;;;4944749;28;20860;-67
2022/07/20 07:11:40;;;;;;;8.30;3.50;;;31.00;91.20;;;;;;4941373;28;20223;-67
2022/07/20 07:14:07;;;;;;;7.15;3.05;;;31.90;90.70;;;;;;4948587;28;20304;-67
2022/07/20 07:16:33;;;;;;;8.00;3.67;;;32.60;89.60;;;;;;4946633;29;20205;-67
2022/07/20 07:19:00;;;;;;;5.60;3.42;;;33.30;87.20;;;;;;4942242;28;20205;-67
2022/07/20 07:21:27;;;;;;;7.28;4.05;;;33.70;85.30;;;;;;4942555;28;20215;-67
2022/07/20 07:23:54;;;;;;;5.15;2.75;;;34.10;85.20;;;;;;4941370;29;20213;-67
2022/07/20 07:26:22;;;;;;;7.72;3.40;;;34.60;84.70;;;;;;4949870;29;20199;-66
2022/07/20 07:28:49;;;;;;;7.20;3.00;;;34.90;83.00;;;;;;4947343;28;20202;-66
2022/07/20 07:31:17;;;;;;;9.52;3.67;;;35.20;82.40;;;;;;4951137;28;20311;-66
2022/07/20 07:33:45;;;;;;;6.47;3.58;;;35.20;81.60;;;;;;4945665;28;20222;-66
2022/07/20 07:36:12;;;;;;;5.97;3.20;;;35.30;81.40;;;;;;4941975;29;20389;-66
2022/07/20 07:38:39;;;;;;;8.48;3.63;;;35.40;81.10;;;;;;4946535;29;20202;-66
2022/07/20 07:41:06;;;;;;;7.90;3.67;;;35.50;81.20;;;;;;4942341;28;20312;-66
2022/07/20 07:43:33;;;;;;;8.48;3.40;;;35.30;80.30;;;;;;4946015;28;20198;-66
2022/07/20 07:45:59;;;;;;;5.57;3.05;;;35.00;81.70;;;;;;4943020;28;20291;-66
2022/07/20 07:48:26;;;;;;;7.57;3.40;;;35.10;80.70;;;;;;4943757;28;20646;-66
2022/07/20 07:50:53;;;;;;;8.43;3.47;;;35.10;80.60;;;;;;4947269;28;20641;-66
2022/07/20 07:53:20;;;;;;;17.30;3.83;;;35.10;80.10;;;;;;4939732;29;20223;-66
2022/07/20 07:55:46;;;;;;;4.45;2.97;;;34.90;80.50;;;;;;4945755;28;20209;-66
2022/07/20 07:58:13;;;;;;;5.47;3.58;;;34.90;81.00;;;;;;4946692;28;20244;-66
2022/07/20 08:00:41;;;;;;;10.90;3.75;;;35.00;80.90;;;;;;4947596;28;20214;-66
2022/07/20 08:03:08;;;;;;;6.68;3.58;;;34.90;80.30;;;;;;4947792;28;20690;-66
2022/07/20 08:05:35;;;;;;;10.93;3.47;;;34.80;80.60;;;;;;4946575;28;20546;-66
2022/07/20 08:08:10;;;;;;;6.53;3.63;;;34.70;80.70;;;;;;4942171;28;20205;-66
2022/07/20 08:10:39;;;;;;;7.82;3.33;;;34.50;81.50;;;;;;4943191;29;20218;-66
2022/07/20 08:13:06;;;;;;;7.80;4.03;;;34.60;81.40;;;;;;4942539;28;20222;-66
2022/07/20 08:15:33;;;;;;;6.93;3.40;;;34.70;82.50;;;;;;4941446;29;20202;-66
2022/07/20 08:18:00;;;;;;;7.85;3.75;;;34.60;82.00;;;;;;4942778;28;20199;-66
2022/07/20 08:20:27;;;;;;;7.95;3.45;;;34.40;83.20;;;;;;4944558;29;20218;-66
2022/07/20 08:22:54;;;;;;;9.52;3.78;;;34.30;82.10;;;;;;4945453;29;20245;-66
2022/07/20 08:25:22;;;;;;;7.47;3.50;;;34.20;82.60;;;;;;4945034;28;20612;-66
2022/07/20 08:27:49;;;;;;;7.57;3.78;;;34.20;82.80;;;;;;4946154;28;20202;-66
2022/07/20 08:30:16;;;;;;;6.85;3.63;;;34.00;82.90;;;;;;4940486;29;20222;-66
2022/07/20 08:33:03;;;;;;;6.07;3.45;;;34.10;82.90;;;;;;4944857;29;20223;-65
2022/07/20 08:35:29;;;;;;;6.82;3.67;;;34.10;82.70;;;;;;4946801;29;20214;-66
2022/07/20 08:37:56;;;;;;;6.28;3.72;;;34.10;82.60;;;;;;4950491;28;20202;-66
2022/07/20 08:40:24;;;;;;;9.50;3.50;;;34.20;82.40;;;;;;4942856;28;20218;-66
2022/07/20 08:42:50;;;;;;;5.88;3.88;;;34.20;82.50;;;;;;4942294;29;20195;-66
2022/07/20 08:45:17;;;;;;;8.95;3.72;;;34.10;82.20;;;;;;4947623;28;20206;-66
2022/07/20 08:47:45;;;;;;;7.63;3.80;;;34.00;81.80;;;;;;4950649;28;20210;-65
2022/07/20 08:50:12;;;;;;;7.18;3.70;;;33.90;81.90;;;;;;4947450;29;20237;-66
2022/07/20 08:52:38;;;;;;;6.47;3.67;;;33.90;82.80;;;;;;4946139;28;20660;-67
2022/07/20 08:55:06;;;;;;;8.50;4.10;;;33.90;82.20;;;;;;4939110;28;20202;-67
2022/07/20 08:57:32;;;;;;;7.38;3.90;;;33.70;81.20;;;;;;4947017;28;20202;-67
2022/07/20 09:00:01;;;;;;;4.88;3.67;;;33.60;82.80;;;;;;4939211;28;20222;-67
2022/07/20 09:02:28;;;;;;;9.13;4.13;;;33.80;83.30;;;;;;4934571;29;20575;-68
2022/07/20 09:05:01;;;;;;;7.25;3.88;;;33.90;83.50;;;;;;4945159;28;21423;-67
2022/07/20 09:07:39;;;;;;;6.40;3.92;;;33.90;83.20;;;;;;4944137;28;20527;-67
2022/07/20 09:10:11;;;;;;;7.15;3.53;;;33.90;82.30;;;;;;4937591;28;20232;-67
2022/07/20 09:12:55;;;;;;;8.98;4.10;;;34.00;82.70;;;;;;4943825;29;20210;-67
2022/07/20 09:15:50;;;;;;;6.53;3.97;;;34.10;82.50;;;;;;4934571;28;20550;-67
2022/07/20 09:18:22;;;;;;;8.00;3.83;;;34.20;83.20;;;;;;4944667;28;20191;-67
2022/07/20 09:21:07;;;;;;;6.82;4.30;;;34.50;81.70;;;;;;4939840;28;20221;-67
2022/07/20 09:23:40;;;;;;;5.35;3.85;;;34.30;82.40;;;;;;4933689;28;20206;-67
2022/07/20 09:26:12;;;;;;;7.22;4.07;;;34.40;83.00;;;;;;4935969;28;20195;-67
2022/07/20 09:28:44;;;;;;;6.40;4.25;;;34.20;83.80;;;;;;4947134;28;20675;-67
2022/07/20 09:31:22;;;;;;;7.30;4.00;;;34.30;82.70;;;;;;4939686;28;20214;-66
2022/07/20 09:33:58;;;;;;;7.07;4.30;;;34.70;81.90;;;;;;4941792;28;20226;-66
2022/07/20 09:36:30;;;;;;;7.70;3.90;;;35.10;81.30;;;;;;4942820;29;20698;-67
2022/07/20 09:39:12;;;;;;;6.90;4.13;;;35.50;79.80;;;;;;4939978;28;20203;-67
2022/07/20 09:41:41;;;;;;;11.43;3.92;;;35.80;79.20;;;;;;4934742;28;20222;-67
2022/07/20 09:44:12;;;;;;;8.90;4.47;;;35.90;79.60;;;;;;4943585;29;20213;-67
2022/07/20 09:46:39;;;;;;;11.43;4.53;;;35.90;79.20;;;;;;4950929;28;20287;-67
2022/07/20 09:49:08;;;;;;;9.57;4.68;;;36.10;79.30;;;;;;4946735;28;20195;-67
2022/07/20 09:51:43;;;;;;;6.55;4.40;;;36.20;79.60;;;;;;4941519;28;20218;-66
2022/07/20 09:54:12;;;;;;;9.88;4.75;;;36.30;79.20;;;;;;4938770;29;20229;-66
2022/07/20 09:56:42;;;;;;;7.05;4.03;;;36.40;78.10;;;;;;4944821;29;20216;-66
2022/07/20 09:59:13;;;;;;;8.35;4.90;;;36.10;78.70;;;;;;4944481;29;20199;-67
2022/07/20 10:01:45;;;;;;;6.15;4.38;;;36.10;78.00;;;;;;4943730;29;20222;-68
2022/07/20 10:04:13;;;;;;;6.63;4.53;;;36.00;78.20;;;;;;4940560;28;20226;-67
2022/07/20 10:06:44;;;;;;;14.23;5.13;;;35.90;78.60;;;;;;4941182;28;20597;-67
2022/07/20 10:09:14;;;;;;;9.45;4.20;;;36.00;79.20;;;;;;4947217;29;20198;-67
2022/07/20 10:11:42;;;;;;;8.90;4.50;;;36.00;77.60;;;;;;4941676;28;20230;-67
2022/07/20 10:14:09;;;;;;;7.25;4.30;;;36.20;78.70;;;;;;4940648;29;20225;-67
2022/07/20 10:16:49;;;;;;;7.57;4.53;;;36.20;77.40;;;;;;4943497;28;20198;-67
2022/07/20 10:19:16;;;;;;;10.32;4.35;;;36.10;77.50;;;;;;4941881;29;20202;-67
2022/07/20 10:21:47;;;;;;;7.22;4.47;;;36.20;78.80;;;;;;4944020;29;20217;-66
2022/07/20 10:24:34;;;;;;;8.82;4.80;;;36.30;80.20;;;;;;4944980;28;20199;-66
2022/07/20 10:27:19;;;;;;;7.88;4.60;;;36.50;78.70;;;;;;4940276;29;20843;-66
2022/07/20 10:29:47;;;;;;;9.57;4.70;;;36.70;77.70;;;;;;4944437;28;20201;-66
2022/07/20 10:32:17;;;;;;;6.07;4.10;;;36.70;77.70;;;;;;4942181;28;20660;-66
2022/07/20 10:34:44;;;;;;;12.35;4.30;;;36.90;78.00;;;;;;4946513;28;20226;-66
2022/07/20 10:37:34;;;;;;;9.50;4.38;;;37.10;76.90;;;;;;4945384;28;20199;-66
2022/07/20 10:40:18;;;;;;;12.10;4.72;;;37.20;77.10;;;;;;4940643;29;20221;-67
2022/07/20 10:43:14;;;;;;;11.02;4.78;;;37.30;77.10;;;;;;4946471;28;20682;-67
2022/07/20 10:45:42;;;;;;;9.35;4.63;;;37.40;76.80;;;;;;4946839;28;20209;-67
2022/07/20 10:48:12;;;;;;;7.13;4.35;;;37.60;76.10;;;;;;4944559;28;20201;-67
2022/07/20 10:50:40;;;;;;;6.40;4.10;;;37.80;76.10;;;;;;4950133;28;20225;-67
2022/07/20 10:53:10;;;;;;;12.05;4.53;;;37.90;76.10;;;;;;4944353;28;20202;-67
2022/07/20 10:55:37;;;;;;;9.50;4.68;;;38.00;75.70;;;;;;4938750;29;20289;-67
2022/07/20 10:58:12;;;;;;;12.07;4.80;;;38.00;76.00;;;;;;4950489;29;20546;-66
2022/07/20 11:00:52;;;;;;;9.27;4.55;;;38.10;75.10;;;;;;4943419;28;20240;-67
2022/07/20 11:03:25;;;;;;;10.23;4.55;;;38.10;75.90;;;;;;4945371;28;20198;-67
2022/07/20 11:06:06;;;;;;;12.75;5.18;;;38.10;74.90;;;;;;4948588;28;20197;-67
2022/07/20 11:08:36;;;;;;;8.43;4.57;;;38.20;74.30;;;;;;4945208;29;20305;-67
2022/07/20 11:11:04;;;;;;;5.68;4.60;;;38.30;75.60;;;;;;4942269;28;20233;-67
2022/07/20 11:13:31;;;;;;;7.43;4.50;;;38.30;75.10;;;;;;4945433;29;20685;-67
2022/07/20 11:16:00;;;;;;;10.43;4.60;;;38.30;75.00;;;;;;4948108;28;20190;-67
2022/07/20 11:18:32;;;;;;;8.15;4.38;;;38.50;74.90;;;;;;4949321;28;20197;-67
2022/07/20 11:20:59;;;;;;;7.80;4.18;;;38.50;74.40;;;;;;4944908;28;20224;-67
2022/07/20 11:23:36;;;;;;;8.38;4.60;;;38.50;74.60;;;;;;4950014;28;20204;-68
2022/07/20 11:26:03;;;;;;;6.35;4.55;;;38.60;73.90;;;;;;4943112;28;20683;-65
2022/07/20 11:28:34;;;;;;;7.57;4.70;;;38.60;74.50;;;;;;4947432;29;20198;-66
2022/07/20 11:31:02;;;;;;;8.43;4.45;;;38.60;73.80;;;;;;4941672;29;20782;-67
2022/07/20 11:33:38;;;;;;;9.98;4.57;;;38.60;74.60;;;;;;4972741;28;20220;-67
2022/07/20 11:36:14;;;;;;;7.63;4.30;;;38.60;74.50;;;;;;4980411;28;20200;-67
2022/07/20 11:38:49;;;;;;;11.75;4.57;;;38.70;74.80;;;;;;4987898;28;20207;-67
2022/07/20 11:41:20;;;;;;;5.65;4.32;;;38.70;73.10;;;;;;4981294;28;20753;-67
2022/07/20 11:43:49;;;;;;;7.75;4.65;;;38.60;74.20;;;;;;4984094;28;20288;-67
2022/07/20 11:46:19;;;;;;;9.18;4.70;;;38.50;75.10;;;;;;4981347;28;20216;-67
2022/07/20 11:49:07;;;;;;;10.60;4.97;;;38.50;74.20;;;;;;4981190;28;20243;-67
2022/07/20 11:52:05;;;;;;;7.57;4.60;;;38.60;74.10;;;;;;4985386;28;20216;-66
2022/07/20 11:54:38;;;;;;;7.30;4.82;;;38.60;75.10;;;;;;4982549;28;20228;-66
2022/07/20 11:57:06;;;;;;;6.88;4.72;;;38.60;74.10;;;;;;4981569;28;20200;-66
2022/07/20 11:59:34;;;;;;;10.23;5.03;;;38.40;73.90;;;;;;4982231;28;20201;-66
2022/07/20 12:02:02;;;;;;;8.68;5.90;;;38.40;74.50;;;;;;4982071;28;20192;-66
2022/07/20 12:04:34;;;;;;;7.63;5.53;;;38.50;74.30;;;;;;4981561;28;20263;-66
2022/07/20 12:08:07;;;;;;;7.72;5.78;;;38.20;75.00;;;;;;4985180;28;20246;-67
2022/07/20 12:09:48;;;;;;;13.77;6.32;;;38.00;75.30;;;;;;4982496;28;20239;-67
2022/07/20 12:12:44;;;;;;;8.27;6.38;;;37.60;77.00;;;;;;4987303;28;20201;-65
2022/07/20 12:15:03;;;;;;;13.73;8.45;;;37.50;77.90;;;;;;4978927;28;20224;-65
2022/07/20 12:17:30;;;;;;;12.68;7.78;;;37.30;78.30;;;;;;4986576;28;20204;-65
2022/07/20 12:19:58;;;;;;;14.38;7.85;;;37.20;78.90;;;;;;4983944;28;20213;-65
2022/07/20 12:22:32;;;;;;;12.02;7.35;;;37.20;78.50;;;;;;4983465;28;20204;-65
2022/07/20 12:25:03;;;;;;;12.57;7.20;;;37.10;78.40;;;;;;4981148;28;20216;-65
2022/07/20 12:27:33;;;;;;;11.85;8.30;;;36.90;78.60;;;;;;4981763;28;20211;-65
2022/07/20 12:30:20;;;;;;;15.20;8.93;;;36.70;79.60;;;;;;4981979;28;20252;-65
2022/07/20 12:33:08;;;;;;;13.95;9.43;;;36.90;80.90;;;;;;4984396;28;20224;-66
2022/07/20 12:35:36;;;;;;;17.60;8.75;;;37.00;79.40;;;;;;4983591;28;20219;-66
2022/07/20 12:38:04;;;;;;;15.77;8.13;;;36.80;79.70;;;;;;4980398;28;20197;-66
2022/07/20 12:40:43;;;;;;;12.82;8.30;;;36.90;79.30;;;;;;4981575;28;20228;-66
2022/07/20 12:43:35;;;;;;;10.80;7.63;;;36.90;79.90;;;;;;4986325;28;20284;-66
2022/07/20 12:46:08;;;;;;;12.73;8.57;;;36.90;80.20;;;;;;4981673;28;20192;-66
2022/07/20 12:48:41;;;;;;;10.88;8.60;;;37.10;79.40;;;;;;4977581;28;20638;-66
2022/07/20 12:51:10;;;;;;;11.13;8.98;;;37.20;79.70;;;;;;4983742;28;20221;-66
2022/07/20 12:53:39;;;;;;;16.60;8.60;;;36.70;80.50;;;;;;4986003;28;20212;-66
2022/07/20 12:56:13;;;;;;;13.57;8.27;;;36.70;80.00;;;;;;4983199;28;20197;-67
2022/07/20 12:58:40;;;;;;;13.98;8.95;;;36.80;79.50;;;;;;4980985;28;20283;-67
2022/07/20 13:01:07;;;;;;;12.88;8.55;;;36.90;79.40;;;;;;4979072;28;20228;-66